Time;durP1;ratioP1;P1;durP2;ratioP2;P2;SDS_P1;SDS_P2;PMS_P1;PMS_P2;Temp;Humidity;BMP_temperature;BMP_pressure;BME280_temperature;BME280_humidity;BME280_pressure;Samples;Min_cycle;Max_cycle;Signal;HPM_P1;HPM_P2
2022/10/10 11:52:46;;;;;;;7.30;5.47;;;;;;;10.62;81.16;100978.03;1772978;79;28479;-56
2022/10/10 13:38:55;;;;;;;17.12;8.50;;;;;;;10.98;81.25;101000.15;1837067;77;28654;-55
2022/10/10 13:42:01;;;;;;;9.48;5.30;;;;;;;10.95;81.17;101025.63;1773982;80;21338;-54
2022/10/10 13:45:06;;;;;;;22.93;7.37;;;;;;;10.94;81.20;101002.02;1806081;79;21212;-55
2022/10/10 13:48:35;;;;;;;17.02;6.97;;;;;;;10.94;81.23;101017.91;1805742;79;21204;-55
2022/10/10 18:04:50;;;;;;;6.90;3.90;;;;;;;10.07;82.79;101117.42;1819465;79;28637;-54
2022/10/10 18:07:57;;;;;;;4.22;2.50;;;;;;;10.02;82.66;101110.22;1814973;78;21335;-54
2022/10/10 18:11:04;;;;;;;6.78;2.83;;;;;;;10.00;82.60;101106.77;1839685;77;21799;-56
2022/10/10 18:14:12;;;;;;;7.58;2.77;;;;;;;9.95;82.60;101110.47;1839232;78;21209;-54
2022/10/10 18:17:18;;;;;;;6.72;2.65;;;;;;;9.91;82.60;101108.53;1839161;78;21321;-55
2022/10/10 18:20:24;;;;;;;5.47;2.70;;;;;;;9.87;82.64;101098.94;1839282;78;21155;-54
2022/10/10 18:23:30;;;;;;;5.10;2.80;;;;;;;9.86;82.69;101102.66;1839106;78;21230;-55
2022/10/10 18:26:36;;;;;;;4.67;2.58;;;;;;;9.82;82.72;101091.69;1839053;78;21163;-54
2022/10/10 18:29:44;;;;;;;8.80;2.77;;;;;;;9.82;82.78;101094.42;1839086;78;21202;-59
2022/10/10 18:32:50;;;;;;;5.10;2.90;;;;;;;9.81;82.84;101109.13;1814704;77;21207;-52
2022/10/10 18:35:56;;;;;;;5.28;2.90;;;;;;;9.82;82.89;101094.92;1838550;78;21179;-55
2022/10/10 18:39:08;;;;;;;5.67;2.58;;;;;;;9.81;82.94;101092.72;1838838;78;21245;-54
2022/10/10 18:42:15;;;;;;;4.85;2.70;;;;;;;9.83;82.93;101093.93;1839146;78;21286;-54
2022/10/10 18:45:22;;;;;;;6.28;2.90;;;;;;;9.83;82.98;101102.13;1839057;78;21333;-55
2022/10/10 18:48:29;;;;;;;7.90;3.00;;;;;;;9.85;83.03;101097.34;1839249;78;21306;-55
2022/10/10 18:51:36;;;;;;;5.95;3.10;;;;;;;9.87;83.05;101092.59;1839145;78;21167;-54
2022/10/10 18:54:42;;;;;;;7.53;3.25;;;;;;;9.89;83.05;101096.91;1839027;78;21176;-54
2022/10/10 19:10:55;;;;;;;7.62;2.60;;;;;;;10.31;82.17;101083.50;1871394;76;22308;-60
2022/10/10 19:14:10;;;;;;;5.58;2.87;;;;;;;10.24;82.15;101087.90;1765073;80;21284;-60
2022/10/10 19:17:16;;;;;;;5.17;2.50;;;;;;;10.18;82.19;101083.89;1738658;82;21185;-60
2022/10/10 19:20:23;;;;;;;5.85;2.90;;;;;;;10.10;82.29;101080.23;1768225;81;21245;-59
2022/10/10 19:23:30;;;;;;;3.90;2.75;;;;;;;10.03;82.39;101079.97;1762708;80;21197;-59
2022/10/10 19:26:36;;;;;;;5.25;2.65;;;;;;;9.96;82.45;101077.48;1766794;81;21173;-60
2022/10/10 19:29:42;;;;;;;5.62;3.00;;;;;;;9.90;82.55;101063.07;1763321;80;21205;-59
2022/10/10 19:32:48;;;;;;;6.83;2.95;;;;;;;9.86;82.62;101069.84;1742285;82;21326;-60
2022/10/10 19:35:55;;;;;;;5.20;2.90;;;;;;;9.83;82.68;101069.32;1769872;79;21205;-60
2022/10/10 19:39:05;;;;;;;5.83;2.83;;;;;;;9.80;82.72;101070.47;1773330;79;21229;-61
2022/10/10 19:42:10;;;;;;;5.12;2.95;;;;;;;9.80;82.80;101079.20;1771863;79;21169;-60
2022/10/10 19:45:17;;;;;;;4.95;2.55;;;;;;;9.77;82.85;101077.62;1758835;81;21178;-60
2022/10/10 19:48:28;;;;;;;5.70;2.72;;;;;;;9.77;82.89;101072.15;1807024;79;21336;-59
2022/10/10 19:51:36;;;;;;;5.37;2.95;;;;;;;9.76;82.91;101069.08;1813013;79;21149;-60
2022/10/10 19:54:41;;;;;;;6.25;2.77;;;;;;;9.74;82.90;101062.89;1806597;79;21744;-61
2022/10/10 19:57:49;;;;;;;4.72;2.42;;;;;;;9.71;82.90;101067.30;1787079;79;21181;-60
2022/10/10 20:00:56;;;;;;;8.53;2.50;;;;;;;9.70;82.89;101054.66;1733634;82;21200;-61
2022/10/10 20:04:03;;;;;;;7.17;2.60;;;;;;;9.69;82.89;101054.81;1771463;79;21233;-60
2022/10/10 20:07:08;;;;;;;3.87;2.35;;;;;;;9.69;82.89;101063.02;1769039;80;21181;-60
2022/10/10 20:10:16;;;;;;;5.58;2.50;;;;;;;9.67;82.89;101059.03;1767571;79;21188;-61
2022/10/10 20:13:21;;;;;;;6.40;2.25;;;;;;;9.65;82.88;101052.02;1785265;80;21991;-60
2022/10/10 20:16:27;;;;;;;6.42;2.58;;;;;;;9.64;82.87;101055.25;1768763;80;21189;-60
2022/10/10 20:19:34;;;;;;;5.05;2.42;;;;;;;9.63;82.88;101057.64;1772681;80;21756;-60
2022/10/10 20:22:43;;;;;;;3.90;2.42;;;;;;;9.62;82.88;101041.39;1774413;79;21189;-60
2022/10/10 20:25:51;;;;;;;5.30;2.33;;;;;;;9.58;82.85;101046.30;1771964;81;21193;-59
2022/10/10 20:28:57;;;;;;;4.83;2.20;;;;;;;9.56;82.85;101046.95;1775851;80;21268;-61
2022/10/10 20:32:02;;;;;;;4.10;2.40;;;;;;;9.52;82.85;101048.78;1778833;80;21189;-62
2022/10/10 20:35:09;;;;;;;4.60;2.87;;;;;;;9.49;82.87;101044.49;1778795;80;21157;-60
2022/10/10 20:38:15;;;;;;;3.87;2.47;;;;;;;9.47;82.87;101042.41;1761460;80;21259;-60
2022/10/10 20:41:22;;;;;;;5.83;2.15;;;;;;;9.47;82.89;101042.91;1771277;81;21182;-60
2022/10/10 20:44:29;;;;;;;4.50;2.00;;;;;;;9.47;82.90;101041.05;1776941;80;21205;-61
2022/10/10 20:47:29;;;;;;;5.22;2.35;;;;;;;9.46;82.89;101028.41;1778840;80;21197;-62
2022/10/10 20:50:34;;;;;;;4.85;2.37;;;;;;;9.48;82.90;101037.28;1778774;80;21242;-59
2022/10/10 20:53:41;;;;;;;7.35;2.52;;;;;;;9.48;82.90;101030.45;1778937;80;21181;-60
2022/10/10 20:56:49;;;;;;;8.23;2.47;;;;;;;9.50;82.89;101028.97;1778865;80;21189;-60
2022/10/10 20:59:57;;;;;;;8.95;2.08;;;;;;;9.50;82.86;101027.07;1778726;79;21661;-60
2022/10/10 21:03:05;;;;;;;3.83;2.27;;;;;;;9.49;82.85;101029.96;1778862;80;21319;-60
2022/10/10 21:06:15;;;;;;;5.92;2.35;;;;;;;9.49;82.84;101013.56;1778712;80;21173;-60
2022/10/10 21:09:24;;;;;;;5.85;2.27;;;;;;;9.48;82.83;101032.35;1778871;80;21157;-60
2022/10/10 21:12:31;;;;;;;4.78;2.20;;;;;;;9.48;82.80;101024.16;1770770;80;21769;-60
2022/10/10 21:15:39;;;;;;;6.92;2.40;;;;;;;9.45;82.75;101025.83;1768752;80;21209;-61
2022/10/10 21:18:44;;;;;;;3.98;2.00;;;;;;;9.40;82.71;101009.89;1768596;80;21198;-59
2022/10/10 21:21:53;;;;;;;4.72;2.17;;;;;;;9.36;82.70;101023.49;1768907;80;21256;-59
2022/10/10 21:24:59;;;;;;;3.20;1.82;;;;;;;9.32;82.70;101024.83;1768709;80;21158;-61
2022/10/10 21:28:05;;;;;;;9.28;2.20;;;;;;;9.30;82.70;101017.28;1768859;80;21332;-60
2022/10/10 21:31:11;;;;;;;4.62;2.00;;;;;;;9.28;82.68;101016.56;1768518;80;21217;-61
2022/10/10 21:34:19;;;;;;;4.78;2.10;;;;;;;9.25;82.66;101022.33;1768841;80;21356;-61
2022/10/10 21:37:27;;;;;;;3.77;2.00;;;;;;;9.24;82.69;101019.26;1768454;80;21186;-61
2022/10/10 21:40:34;;;;;;;10.45;2.47;;;;;;;9.22;82.68;101014.94;1768580;80;21328;-61
2022/10/10 21:43:43;;;;;;;8.48;2.12;;;;;;;9.21;82.67;101014.10;1768551;80;21364;-61
2022/10/10 21:46:50;;;;;;;6.67;2.00;;;;;;;9.19;82.65;101016.12;1769167;80;21189;-61
2022/10/10 21:49:55;;;;;;;7.25;2.27;;;;;;;9.20;82.65;101023.29;1768521;80;21324;-60
2022/10/10 21:53:02;;;;;;;3.22;1.82;;;;;;;9.21;82.69;101019.56;1766452;80;21189;-61
2022/10/10 21:56:10;;;;;;;6.70;2.15;;;;;;;9.23;82.70;101014.78;1769989;80;21735;-60
2022/10/10 21:59:17;;;;;;;5.17;2.15;;;;;;;9.24;82.70;101010.20;1743359;80;21190;-61
2022/10/10 22:02:23;;;;;;;4.05;2.00;;;;;;;9.26;82.67;101013.64;1767642;81;21185;-61
2022/10/10 22:05:30;;;;;;;4.35;1.80;;;;;;;9.27;82.64;101013.98;1768372;81;21189;-61
2022/10/10 22:08:36;;;;;;;5.28;2.10;;;;;;;9.26;82.64;101018.58;1768230;80;21192;-60
2022/10/10 22:11:43;;;;;;;6.58;2.15;;;;;;;9.27;82.64;101020.81;1778082;80;21216;-61
2022/10/10 22:14:51;;;;;;;3.87;1.90;;;;;;;9.27;82.60;101013.98;1750568;80;21217;-61
2022/10/10 22:17:58;;;;;;;5.85;2.20;;;;;;;9.25;82.56;101018.73;1768153;80;21212;-61
2022/10/10 22:21:03;;;;;;;4.53;2.20;;;;;;;9.22;82.56;101014.44;1778268;80;21176;-61
2022/10/10 22:24:09;;;;;;;3.80;2.42;;;;;;;9.20;82.53;101027.38;1767544;80;21217;-60
2022/10/10 22:27:15;;;;;;;2.90;1.98;;;;;;;9.18;82.50;101023.09;1768023;80;21186;-61
2022/10/10 22:30:22;;;;;;;4.28;1.80;;;;;;;9.15;82.45;101024.77;1778265;80;21258;-61
2022/10/10 22:33:29;;;;;;;3.62;1.85;;;;;;;9.11;82.46;101031.03;1767833;80;21216;-60
2022/10/10 22:36:37;;;;;;;6.30;1.60;;;;;;;9.10;82.46;101037.52;1771488;80;21205;-61
2022/10/10 22:39:44;;;;;;;2.80;1.60;;;;;;;9.12;82.47;101034.64;1771275;80;21276;-60
2022/10/10 22:42:44;;;;;;;5.28;2.05;;;;;;;9.13;82.47;101030.88;1771560;80;21342;-60
2022/10/10 22:45:52;;;;;;;2.83;1.85;;;;;;;9.15;82.46;101035.17;1771559;80;21378;-60
2022/10/10 22:48:57;;;;;;;5.55;2.10;;;;;;;9.17;82.46;101035.89;1771012;80;21237;-60
2022/10/10 22:52:04;;;;;;;4.70;1.95;;;;;;;9.20;82.46;101034.74;1770620;80;21181;-60
2022/10/10 22:55:09;;;;;;;3.62;1.62;;;;;;;9.21;82.46;101026.39;1771497;80;21212;-60
2022/10/10 22:58:17;;;;;;;9.80;2.25;;;;;;;9.22;82.46;101025.38;1771270;80;21248;-61
2022/10/10 23:01:25;;;;;;;6.40;1.80;;;;;;;9.23;82.42;101034.44;1771184;81;21240;-61
2022/10/10 23:04:30;;;;;;;3.65;2.00;;;;;;;9.24;82.42;101038.38;1771200;80;21216;-60
2022/10/10 23:07:36;;;;;;;4.17;1.98;;;;;;;9.25;82.42;101030.53;1745638;82;21284;-60
2022/10/10 23:10:45;;;;;;;5.08;1.67;;;;;;;9.25;82.42;101028.29;1767538;81;21240;-60
2022/10/10 23:13:54;;;;;;;2.25;1.40;;;;;;;9.25;82.39;101037.36;1770848;79;21379;-60
2022/10/10 23:16:59;;;;;;;3.02;1.77;;;;;;;9.26;82.36;101032.23;1771958;80;21532;-59
2022/10/10 23:20:06;;;;;;;4.65;1.90;;;;;;;9.24;82.33;101045.21;1771444;80;21224;-62
2022/10/10 23:23:14;;;;;;;3.37;1.80;;;;;;;9.25;82.30;101031.02;1770963;81;21181;-60
2022/10/10 23:26:20;;;;;;;6.45;2.25;;;;;;;9.22;82.27;101032.70;1771292;80;21158;-61
2022/10/10 23:29:26;;;;;;;5.65;1.98;;;;;;;9.21;82.24;101029.13;1771948;80;21386;-61
2022/10/10 23:32:32;;;;;;;4.05;1.80;;;;;;;9.20;82.22;101034.74;1762721;80;21248;-59
2022/10/10 23:35:38;;;;;;;5.03;1.85;;;;;;;9.18;82.22;101021.20;1766932;80;21261;-60
2022/10/10 23:38:43;;;;;;;3.52;2.10;;;;;;;9.18;82.20;101036.23;1725802;82;21226;-60
2022/10/10 23:41:49;;;;;;;3.65;1.62;;;;;;;9.17;82.19;101024.09;1725790;83;21277;-61
2022/10/10 23:44:56;;;;;;;4.35;2.00;;;;;;;9.17;82.19;101030.91;1734298;81;21193;-60
2022/10/10 23:48:02;;;;;;;6.28;2.12;;;;;;;9.17;82.17;101021.36;1726160;82;21268;-59
2022/10/10 23:51:08;;;;;;;3.58;1.95;;;;;;;9.17;82.20;101026.82;1765514;81;21201;-60
2022/10/10 23:54:14;;;;;;;4.10;2.00;;;;;;;9.19;82.21;101029.77;1773825;79;21165;-61
2022/10/10 23:57:21;;;;;;;4.33;2.02;;;;;;;9.19;82.20;101029.77;1738580;82;21249;-62
